Time;durP1;ratioP1;P1;durP2;ratioP2;P2;SDS_P1;SDS_P2;PMS_P1;PMS_P2;Temp;Humidity;BMP_temperature;BMP_pressure;BME280_temperature;BME280_humidity;BME280_pressure;Samples;Min_cycle;Max_cycle;Signal;HPM_P1;HPM_P2
2022/12/12 00:02:45;;;;;;;;;;;;;;;-0.12;88.39;98705.66;10196075;23;19982;-76
2022/12/12 00:06:47;;;;;;;;;;;;;;;-0.12;88.52;98703.09;10204589;23;20462;-76
2022/12/12 00:10:49;;;;;;;;;;;;;;;-0.11;88.35;98700.59;10228054;23;19924;-76
2022/12/12 00:14:50;;;;;;;;;;;;;;;-0.11;88.08;98698.03;10204320;23;19967;-76
2022/12/12 00:18:52;;;;;;;;;;;;;;;-0.09;88.16;98708.28;10196015;23;19995;-76
2022/12/12 00:22:53;;;;;;;;;;;;;;;-0.10;88.02;98709.09;10204119;23;20014;-77
2022/12/12 00:26:54;;;;;;;;;;;;;;;-0.06;88.20;98705.81;10204271;23;19924;-76
2022/12/12 00:30:56;;;;;;;;;;;;;;;-0.06;88.33;98701.56;10222221;23;19950;-76
2022/12/12 00:34:57;;;;;;;;;;;;;;;-0.05;88.39;98707.53;10217284;23;19924;-77
2022/12/12 00:38:59;;;;;;;;;;;;;;;-0.09;88.35;98704.03;10229629;23;19920;-76
2022/12/12 00:43:01;;;;;;;;;;;;;;;-0.11;87.97;98708.25;10230209;23;19920;-76
2022/12/12 00:47:02;;;;;;;;;;;;;;;-0.11;87.97;98705.69;10272706;23;19947;-76
2022/12/12 00:51:08;;;;;;;;;;;;;;;-0.06;88.33;98708.34;10277928;23;19935;-77
2022/12/12 00:55:12;;;;;;;;;;;;;;;-0.05;88.07;98712.63;10230962;23;19954;-76
2022/12/12 00:59:15;;;;;;;;;;;;;;;-0.03;88.20;98710.97;10256949;23;19967;-76
2022/12/12 01:03:16;;;;;;;;;;;;;;;-0.03;88.54;98723.75;10247566;23;19935;-76
2022/12/12 01:07:17;;;;;;;;;;;;;;;-0.02;88.81;98718.66;10276075;23;20269;-76
2022/12/12 01:11:19;;;;;;;;;;;;;;;-0.01;88.54;98716.97;10277694;23;19947;-76
2022/12/12 01:15:21;;;;;;;;;;;;;;;0.00;88.69;98716.19;10219413;23;19963;-76
2022/12/12 01:19:22;;;;;;;;;;;;;;;0.01;88.17;98730.69;10275253;23;19978;-76
2022/12/12 01:23:23;;;;;;;;;;;;;;;-0.02;87.85;98731.44;10228074;23;19924;-76
2022/12/12 01:27:26;;;;;;;;;;;;;;;-0.04;87.93;98735.63;10252483;23;19990;-76
2022/12/12 01:31:27;;;;;;;;;;;;;;;-0.05;88.02;98739.00;10221626;23;19931;-76
2022/12/12 01:35:30;;;;;;;;;;;;;;;-0.10;87.95;98739.72;10251372;23;20425;-76
2022/12/12 01:39:31;;;;;;;;;;;;;;;-0.18;87.54;98731.88;10227093;23;19934;-76
2022/12/12 01:43:32;;;;;;;;;;;;;;;-0.17;87.29;98732.72;10252588;23;20372;-76
2022/12/12 01:47:34;;;;;;;;;;;;;;;-0.26;87.38;98737.56;10270938;23;20262;-76
2022/12/12 01:51:35;;;;;;;;;;;;;;;-0.21;87.55;98739.41;10252065;23;19959;-76
2022/12/12 01:55:37;;;;;;;;;;;;;;;-0.17;87.91;98741.25;10227831;23;19955;-76
2022/12/12 01:59:39;;;;;;;;;;;;;;;-0.15;87.70;98743.84;10278365;23;19952;-76
2022/12/12 02:03:41;;;;;;;;;;;;;;;-0.14;87.61;98743.03;10245229;23;20658;-75
2022/12/12 02:07:42;;;;;;;;;;;;;;;-0.15;87.29;98746.41;10249276;23;20556;-76
2022/12/12 02:11:46;;;;;;;;;;;;;;;-0.16;86.84;98744.66;10276305;23;19924;-75
2022/12/12 02:15:59;;;;;;;;;;;;;;;-0.23;85.79;98752.94;10269259;23;20003;-76
2022/12/12 02:20:03;;;;;;;;;;;;;;;-0.23;85.81;98745.31;10275845;23;19920;-76
2022/12/12 02:24:17;;;;;;;;;;;;;;;-0.20;86.38;98747.94;10249579;23;20595;-76
2022/12/12 02:28:41;;;;;;;;;;;;;;;-0.19;86.25;98753.06;10226905;23;19978;-76
2022/12/12 02:32:42;;;;;;;;;;;;;;;-0.17;85.91;98755.69;10268215;23;19943;-75
2022/12/12 02:36:49;;;;;;;;;;;;;;;-0.16;85.84;98753.19;10249854;23;20029;-76
2022/12/12 02:41:00;;;;;;;;;;;;;;;-0.15;85.54;98756.59;10248578;23;20494;-75
2022/12/12 02:45:06;;;;;;;;;;;;;;;-0.16;85.24;98750.63;10223902;23;19924;-76
2022/12/12 02:49:07;;;;;;;;;;;;;;;-0.16;85.02;98752.31;10199330;23;19928;-75
2022/12/12 02:53:09;;;;;;;;;;;;;;;-0.17;84.40;98759.09;10225445;23;20366;-75
2022/12/12 02:57:15;;;;;;;;;;;;;;;-0.27;83.57;98758.81;10201519;23;19927;-76
2022/12/12 03:01:33;;;;;;;;;;;;;;;-0.32;83.70;98757.00;10219587;23;19991;-76
2022/12/12 03:10:08;;;;;;;;;;;;;;;-0.36;83.57;98750.09;10231733;23;19999;-75
2022/12/12 03:14:20;;;;;;;;;;;;;;;-0.35;83.91;98753.50;10232623;23;20488;-76
2022/12/12 03:18:26;;;;;;;;;;;;;;;-0.32;84.33;98751.88;10247605;23;20080;-76
2022/12/12 03:22:32;;;;;;;;;;;;;;;-0.31;84.25;98745.09;10230129;23;20011;-75
2022/12/12 03:26:47;;;;;;;;;;;;;;;-0.31;83.92;98745.97;10204993;23;20240;-75
2022/12/12 03:30:54;;;;;;;;;;;;;;;-0.32;83.94;98745.94;10223359;23;19999;-75
2022/12/12 03:34:59;;;;;;;;;;;;;;;-0.31;83.85;98740.88;10253426;23;20001;-75
2022/12/12 03:39:05;;;;;;;;;;;;;;;-0.33;83.50;98742.50;10252566;23;19970;-75
2022/12/12 03:43:06;;;;;;;;;;;;;;;-0.32;83.81;98744.25;10224258;23;20361;-75
2022/12/12 03:47:12;;;;;;;;;;;;;;;-0.33;83.21;98754.41;10246678;23;19924;-76
2022/12/12 03:51:17;;;;;;;;;;;;;;;-0.33;82.57;98751.84;10253042;23;19920;-76
2022/12/12 03:55:23;;;;;;;;;;;;;;;-0.35;82.02;98743.28;10229386;23;20007;-76
2022/12/12 03:59:28;;;;;;;;;;;;;;;-0.34;82.45;98750.97;10255247;23;19955;-76
2022/12/12 04:03:44;;;;;;;;;;;;;;;-0.33;82.46;98756.94;10274324;23;19935;-76
2022/12/12 04:08:02;;;;;;;;;;;;;;;-0.33;82.93;98762.06;10231524;23;19990;-76
2022/12/12 04:16:43;;;;;;;;;;;;;;;-0.37;82.71;98758.53;10249622;23;19924;-76
2022/12/12 04:25:30;;;;;;;;;;;;;;;-0.35;83.73;98761.16;10255115;23;19924;-76
2022/12/12 04:29:50;;;;;;;;;;;;;;;-0.34;83.35;98771.38;10229737;23;19998;-76
2022/12/12 04:33:55;;;;;;;;;;;;;;;-0.32;83.59;98777.41;10245839;23;19925;-75
2022/12/12 04:37:58;;;;;;;;;;;;;;;-0.32;83.37;98773.97;10279714;23;19924;-76
2022/12/12 04:42:00;;;;;;;;;;;;;;;-0.33;83.21;98785.00;10229246;23;20314;-76
2022/12/12 04:46:13;;;;;;;;;;;;;;;-0.31;83.23;98775.72;10224068;23;20347;-76
2022/12/12 04:50:16;;;;;;;;;;;;;;;-0.32;83.10;98777.41;10252527;23;19924;-75
2022/12/12 04:54:20;;;;;;;;;;;;;;;-0.33;82.73;98783.31;10279512;23;20635;-75
2022/12/12 04:58:22;;;;;;;;;;;;;;;-0.31;82.89;98780.81;10228557;23;19974;-76
2022/12/12 05:02:53;;;;;;;;;;;;;;;-0.32;82.49;98784.19;10246030;23;20374;-75
2022/12/12 05:07:01;;;;;;;;;;;;;;;-0.33;82.31;98780.75;10234971;23;20219;-76
2022/12/12 05:11:04;;;;;;;;;;;;;;;-0.45;82.00;98787.19;10277900;23;19931;-75
2022/12/12 05:15:06;;;;;;;;;;;;;;;-0.48;82.86;98782.00;10246269;23;19959;-76
2022/12/12 05:19:07;;;;;;;;;;;;;;;-0.43;83.78;98780.44;10226428;23;19923;-75
2022/12/12 05:23:08;;;;;;;;;;;;;;;-0.39;83.97;98784.81;10252594;23;19966;-75
2022/12/12 05:27:11;;;;;;;;;;;;;;;-0.38;83.71;98789.94;10251874;23;20543;-75
2022/12/12 05:31:13;;;;;;;;;;;;;;;-0.44;83.23;98794.88;10223524;23;20483;-76
2022/12/12 05:35:14;;;;;;;;;;;;;;;-0.44;82.92;98794.00;10179629;23;19924;-76
2022/12/12 05:39:16;;;;;;;;;;;;;;;-0.48;83.05;98797.31;10180705;23;19925;-76
2022/12/12 05:43:17;;;;;;;;;;;;;;;-0.47;82.68;98799.91;10179632;23;19982;-76
2022/12/12 05:47:20;;;;;;;;;;;;;;;-0.51;82.71;98803.19;10147533;23;19928;-76
2022/12/12 05:51:21;;;;;;;;;;;;;;;-0.52;82.78;98801.44;10181194;23;20414;-76
2022/12/12 05:55:22;;;;;;;;;;;;;;;-0.48;83.17;98800.72;10179117;23;20034;-76
2022/12/12 05:59:24;;;;;;;;;;;;;;;-0.44;83.64;98805.09;10180169;23;19920;-76
2022/12/12 06:03:25;;;;;;;;;;;;;;;-0.41;83.63;98811.94;10171617;23;19925;-76
2022/12/12 06:07:26;;;;;;;;;;;;;;;-0.38;83.80;98809.47;10181038;23;19981;-76
2022/12/12 06:11:28;;;;;;;;;;;;;;;-0.37;84.14;98814.63;10155444;23;20016;-76
2022/12/12 06:15:29;;;;;;;;;;;;;;;-0.32;84.43;98818.19;10173594;23;19928;-75
2022/12/12 06:19:32;;;;;;;;;;;;;;;-0.28;84.75;98820.84;10179766;23;19924;-76
2022/12/12 06:23:37;;;;;;;;;;;;;;;-0.32;84.40;98815.66;10178735;23;20012;-76
2022/12/12 06:27:38;;;;;;;;;;;;;;;-0.33;84.40;98818.16;10179637;23;19924;-76
2022/12/12 06:31:40;;;;;;;;;;;;;;;-0.38;83.73;98825.66;10175139;23;20415;-75
2022/12/12 06:35:41;;;;;;;;;;;;;;;-0.38;83.56;98817.13;10209325;23;19986;-75
2022/12/12 06:39:43;;;;;;;;;;;;;;;-0.42;83.04;98822.97;10202227;23;20351;-75
2022/12/12 06:43:45;;;;;;;;;;;;;;;-0.45;83.35;98815.25;10226621;23;20555;-75
2022/12/12 06:47:46;;;;;;;;;;;;;;;-0.47;83.37;98821.97;10218333;23;19928;-75
2022/12/12 06:51:48;;;;;;;;;;;;;;;-0.45;83.53;98826.31;10225201;23;19924;-75
2022/12/12 06:55:50;;;;;;;;;;;;;;;-0.48;83.34;98823.66;10225039;23;19934;-75
2022/12/12 06:59:52;;;;;;;;;;;;;;;-0.48;83.25;98830.44;10248600;23;19924;-75
2022/12/12 07:03:53;;;;;;;;;;;;;;;-0.49;83.14;98832.13;10217594;23;20350;-75
2022/12/12 07:07:55;;;;;;;;;;;;;;;-0.44;83.67;98838.22;10226231;23;19928;-75
2022/12/12 07:11:56;;;;;;;;;;;;;;;-0.45;83.29;98841.59;10225339;23;20319;-75
2022/12/12 07:15:58;;;;;;;;;;;;;;;-0.44;83.40;98847.56;10241772;23;20204;-74
2022/12/12 07:20:01;;;;;;;;;;;;;;;-0.42;83.46;98846.78;10199810;23;19921;-75
2022/12/12 07:24:04;;;;;;;;;;;;;;;-0.43;83.34;98837.41;10228260;23;19920;-77
2022/12/12 07:28:14;;;;;;;;;;;;;;;-0.43;82.89;98839.97;10176922;23;19962;-75
2022/12/12 07:32:15;;;;;;;;;;;;;;;-0.47;82.73;98845.78;10218806;23;19920;-76
2022/12/12 07:36:17;;;;;;;;;;;;;;;-0.47;82.52;98848.34;10226244;23;19932;-75
2022/12/12 07:40:20;;;;;;;;;;;;;;;-0.50;82.17;98847.41;10230105;23;19963;-76
2022/12/12 07:44:26;;;;;;;;;;;;;;;-0.47;82.43;98858.53;10230500;23;20449;-75
2022/12/12 07:48:29;;;;;;;;;;;;;;;-0.44;82.70;98863.72;10209279;23;19920;-76
2022/12/12 07:52:30;;;;;;;;;;;;;;;-0.43;82.56;98869.69;10236830;23;20003;-76
2022/12/12 07:56:31;;;;;;;;;;;;;;;-0.41;81.91;98866.38;10256955;23;19920;-77
2022/12/12 08:00:33;;;;;;;;;;;;;;;-0.39;82.37;98874.06;10200422;23;19982;-76
2022/12/12 08:04:34;;;;;;;;;;;;;;;-0.37;82.11;98877.53;10231114;23;19924;-76
2022/12/12 08:08:36;;;;;;;;;;;;;;;-0.36;82.12;98880.16;10232344;23;20216;-77
2022/12/12 08:12:37;;;;;;;;;;;;;;;-0.31;82.50;98886.25;10206029;23;19923;-76
2022/12/12 08:16:38;;;;;;;;;;;;;;;-0.22;82.63;98882.22;10200192;23;19978;-76
2022/12/12 08:20:40;;;;;;;;;;;;;;;-0.17;82.10;98886.66;10204949;23;19924;-76
2022/12/12 08:24:41;;;;;;;;;;;;;;;-0.18;81.70;98892.59;10230532;23;19920;-76
2022/12/12 08:28:44;;;;;;;;;;;;;;;-0.15;81.67;98892.69;10255059;23;20407;-76
2022/12/12 08:32:45;;;;;;;;;;;;;;;-0.12;81.48;98897.00;10217432;23;20366;-76
2022/12/12 08:36:53;;;;;;;;;;;;;;;-0.07;81.24;98905.66;10206758;23;19990;-76
2022/12/12 08:40:55;;;;;;;;;;;;;;;-0.01;81.21;98905.81;10205223;23;19935;-78
2022/12/12 08:44:57;;;;;;;;;;;;;;;0.01;80.77;98913.53;10254546;23;19982;-76
2022/12/12 08:48:58;;;;;;;;;;;;;;;0.04;80.77;98919.59;10219927;23;19924;-75
2022/12/12 08:53:09;;;;;;;;;;;;;;;0.09;80.79;98909.53;10226793;23;19928;-76
2022/12/12 08:57:23;;;;;;;;;;;;;;;0.19;80.14;98911.53;10227990;23;19935;-75
2022/12/12 09:01:29;;;;;;;;;;;;;;;0.48;80.06;98902.97;10225280;23;19924;-75
2022/12/12 09:05:49;;;;;;;;;;;;;;;0.84;78.81;98913.31;10226353;23;19920;-75
2022/12/12 09:09:53;;;;;;;;;;;;;;;1.08;76.73;98914.81;10227049;23;20006;-75
2022/12/12 09:13:58;;;;;;;;;;;;;;;1.29;76.12;98917.88;10202043;23;19935;-75
2022/12/12 09:18:06;;;;;;;;;;;;;;;1.43;75.39;98918.19;10223220;23;19979;-76
2022/12/12 09:22:08;;;;;;;;;;;;;;;1.40;74.17;98916.44;10204423;23;20316;-76
2022/12/12 09:26:09;;;;;;;;;;;;;;;1.40;74.24;98918.13;10229827;23;19982;-76
2022/12/12 09:30:11;;;;;;;;;;;;;;;1.31;74.41;98917.94;10224046;23;19956;-77
2022/12/12 09:34:12;;;;;;;;;;;;;;;1.25;75.01;98923.72;10241965;23;19928;-76
2022/12/12 09:38:13;;;;;;;;;;;;;;;1.33;75.41;98929.06;10279565;23;20004;-76
2022/12/12 09:42:25;;;;;;;;;;;;;;;1.36;73.99;98922.31;10279224;23;20006;-76
2022/12/12 09:46:30;;;;;;;;;;;;;;;1.41;74.33;98930.94;10229142;23;20006;-76
2022/12/12 09:50:35;;;;;;;;;;;;;;;1.49;73.78;98932.03;10278383;23;20700;-76
2022/12/12 09:54:36;;;;;;;;;;;;;;;1.63;73.84;98927.25;10229188;23;20130;-76
2022/12/12 09:58:37;;;;;;;;;;;;;;;1.58;72.99;98936.47;10253870;23;20026;-76
2022/12/12 10:03:01;;;;;;;;;;;;;;;1.53;72.88;98938.06;10243913;23;19971;-76
2022/12/12 10:07:08;;;;;;;;;;;;;;;1.52;72.95;98928.66;10274361;23;19924;-76
2022/12/12 10:11:49;;;;;;;;;;;;;;;1.51;73.36;98922.69;10252280;23;20327;-76
2022/12/12 10:15:38;;;;;;;;;;;;;;;1.49;73.63;98913.25;10247948;23;19970;-76
2022/12/12 10:20:00;;;;;;;;;;;;;;;1.43;73.59;98906.28;10252641;23;19923;-76
2022/12/12 10:24:17;;;;;;;;;;;;;;;1.28;73.07;98905.06;10250094;23;20425;-75
2022/12/12 10:28:19;;;;;;;;;;;;;;;1.16;73.38;98908.19;10274713;23;20298;-75
2022/12/12 10:32:44;;;;;;;;;;;;;;;1.13;74.38;98906.41;10217781;23;20374;-75
2022/12/12 10:37:06;;;;;;;;;;;;;;;1.06;73.94;98908.75;10224099;23;19923;-75
2022/12/12 10:41:15;;;;;;;;;;;;;;;0.99;74.71;98905.19;10274869;23;19924;-75
2022/12/12 10:45:31;;;;;;;;;;;;;;;0.99;74.87;98902.63;10245270;23;19924;-76
2022/12/12 10:49:32;;;;;;;;;;;;;;;0.95;74.34;98902.53;10278164;23;19923;-76
2022/12/12 10:53:34;;;;;;;;;;;;;;;0.93;74.32;98897.38;10277996;23;19985;-76
2022/12/12 10:57:35;;;;;;;;;;;;;;;0.88;74.24;98898.94;10280448;23;19963;-76
2022/12/12 11:01:37;;;;;;;;;;;;;;;0.88;74.34;98893.81;10270688;23;19965;-76
2022/12/12 11:06:02;;;;;;;;;;;;;;;0.92;74.86;98895.66;10250528;23;19920;-75
2022/12/12 11:10:13;;;;;;;;;;;;;;;0.90;74.84;98882.84;10251547;23;19934;-75
2022/12/12 11:14:32;;;;;;;;;;;;;;;0.92;74.61;98889.69;10278812;23;19924;-76
2022/12/12 11:18:33;;;;;;;;;;;;;;;0.92;74.18;98882.00;10221948;23;19950;-76
2022/12/12 11:22:37;;;;;;;;;;;;;;;0.88;73.49;98871.69;10276735;23;19928;-76
2022/12/12 11:26:47;;;;;;;;;;;;;;;0.89;74.41;98870.00;10224567;23;19986;-75
2022/12/12 11:30:51;;;;;;;;;;;;;;;0.93;74.62;98871.81;10242724;23;19982;-75
2022/12/12 11:34:54;;;;;;;;;;;;;;;0.96;73.86;98869.34;10249311;23;19935;-75
2022/12/12 11:38:56;;;;;;;;;;;;;;;1.00;73.43;98857.50;10247919;23;19931;-75
2022/12/12 11:43:22;;;;;;;;;;;;;;;1.03;74.21;98855.00;10224720;23;19962;-75
2022/12/12 11:47:28;;;;;;;;;;;;;;;1.04;73.27;98851.63;10216789;23;20428;-74
2022/12/12 11:51:43;;;;;;;;;;;;;;;1.07;72.61;98851.69;10221460;23;19923;-75
2022/12/12 11:55:47;;;;;;;;;;;;;;;1.08;72.84;98853.44;10273318;23;19951;-75
2022/12/12 12:00:08;;;;;;;;;;;;;;;1.10;73.01;98852.66;10248352;23;20351;-75
2022/12/12 12:04:28;;;;;;;;;;;;;;;1.12;72.80;98842.47;10247523;23;20003;-75
2022/12/12 12:08:38;;;;;;;;;;;;;;;1.11;72.47;98850.97;10247108;23;20248;-75
2022/12/12 12:13:00;;;;;;;;;;;;;;;1.13;73.06;98839.94;10272398;23;20002;-75
2022/12/12 12:17:07;;;;;;;;;;;;;;;1.18;73.03;98842.59;10223447;23;19927;-75
2022/12/12 12:21:20;;;;;;;;;;;;;;;1.19;73.02;98832.41;10224015;23;19951;-75
2022/12/12 12:25:21;;;;;;;;;;;;;;;1.22;71.75;98829.06;10227166;23;19950;-76
2022/12/12 12:29:26;;;;;;;;;;;;;;;1.27;71.91;98830.03;10280048;23;19935;-77
2022/12/12 12:33:46;;;;;;;;;;;;;;;1.32;72.07;98817.34;10247277;23;19977;-77
2022/12/12 12:37:50;;;;;;;;;;;;;;;1.33;71.21;98812.28;10255573;23;20311;-77
2022/12/12 12:41:58;;;;;;;;;;;;;;;1.37;70.04;98810.66;10255050;23;20042;-77
2022/12/12 12:46:04;;;;;;;;;;;;;;;1.37;68.84;98808.94;10247419;23;19935;-76
2022/12/12 12:50:18;;;;;;;;;;;;;;;1.40;67.75;98813.25;10227866;23;19920;-76
2022/12/12 12:54:22;;;;;;;;;;;;;;;1.43;67.86;98810.78;10254113;23;20323;-76
2022/12/12 12:58:26;;;;;;;;;;;;;;;1.42;67.25;98809.03;10254227;23;19959;-76
2022/12/12 13:02:48;;;;;;;;;;;;;;;1.44;66.94;98802.31;10246521;23;19951;-76
2022/12/12 13:07:03;;;;;;;;;;;;;;;1.43;66.13;98806.50;10282578;23;19924;-76
2022/12/12 13:11:52;;;;;;;;;;;;;;;1.42;66.61;98796.25;10276427;23;19999;-77
2022/12/12 13:21:25;;;;;;;;;;;;;;;1.41;66.95;98776.63;10320657;22;19935;-76
2022/12/12 13:25:34;;;;;;;;;;;;;;;1.40;66.28;98780.88;10276248;23;19984;-76
2022/12/12 13:29:59;;;;;;;;;;;;;;;1.39;66.38;98776.59;10329403;23;19930;-76
2022/12/12 13:34:15;;;;;;;;;;;;;;;1.38;64.71;98787.66;10327717;23;20002;-76
2022/12/12 13:38:22;;;;;;;;;;;;;;;1.34;63.60;98790.97;10277446;23;19958;-76
2022/12/12 13:42:47;;;;;;;;;;;;;;;1.32;65.02;98795.19;10278351;23;19995;-76
2022/12/12 13:46:54;;;;;;;;;;;;;;;1.32;66.19;98796.91;10313883;23;20184;-75
2022/12/12 13:51:18;;;;;;;;;;;;;;;1.28;66.65;98792.56;10277066;23;19923;-76
2022/12/12 13:56:03;;;;;;;;;;;;;;;1.26;67.22;98787.41;10301556;23;20675;-76
2022/12/12 14:00:16;;;;;;;;;;;;;;;1.25;67.47;98759.22;10320576;23;20216;-76
2022/12/12 14:04:23;;;;;;;;;;;;;;;1.21;67.64;98748.94;10301407;23;19934;-77
2022/12/12 14:08:27;;;;;;;;;;;;;;;1.18;67.71;98742.88;10302993;23;19923;-77
2022/12/12 14:12:33;;;;;;;;;;;;;;;1.15;68.23;98737.72;10303940;23;19924;-77
2022/12/12 14:16:36;;;;;;;;;;;;;;;1.11;65.69;98729.13;10295242;23;19919;-77
2022/12/12 14:20:42;;;;;;;;;;;;;;;1.04;64.92;98727.22;10258080;23;20007;-77
2022/12/12 14:24:58;;;;;;;;;;;;;;;1.01;64.50;98731.41;10278973;23;20307;-77
2022/12/12 14:29:18;;;;;;;;;;;;;;;0.96;65.15;98739.00;10253289;23;20554;-77
2022/12/12 14:34:17;;;;;;;;;;;;;;;0.88;66.26;98756.69;10258945;23;19946;-78
2022/12/12 14:38:29;;;;;;;;;;;;;;;0.82;65.22;98761.66;10278147;23;19924;-78
2022/12/12 14:42:33;;;;;;;;;;;;;;;0.77;67.07;98780.28;10229404;23;19982;-78
2022/12/12 14:46:58;;;;;;;;;;;;;;;0.68;67.66;98777.47;10242743;23;19931;-78
2022/12/12 14:51:10;;;;;;;;;;;;;;;0.57;65.65;98775.53;10244682;23;19920;-78
2022/12/12 14:55:15;;;;;;;;;;;;;;;0.50;65.11;98780.44;10273651;23;19931;-78
2022/12/12 14:59:25;;;;;;;;;;;;;;;0.43;67.07;98774.31;10247648;23;19927;-77
2022/12/12 15:03:42;;;;;;;;;;;;;;;0.34;68.12;98768.09;10242188;23;19934;-77
2022/12/12 15:08:18;;;;;;;;;;;;;;;0.25;68.69;98769.59;10251213;23;19924;-77
2022/12/12 15:12:25;;;;;;;;;;;;;;;0.17;69.14;98765.97;10247589;23;19946;-75
2022/12/12 15:16:47;;;;;;;;;;;;;;;0.08;69.05;98775.94;10212567;23;19951;-75
2022/12/12 15:20:54;;;;;;;;;;;;;;;0.01;70.38;98768.09;10267512;23;19924;-76
2022/12/12 15:24:57;;;;;;;;;;;;;;;-0.05;71.00;98764.53;10243910;23;19962;-76
2022/12/12 15:28:59;;;;;;;;;;;;;;;-0.15;71.84;98761.69;10220094;23;19931;-76
2022/12/12 15:33:00;;;;;;;;;;;;;;;-0.27;72.20;98767.31;10237496;23;19924;-76
2022/12/12 15:37:09;;;;;;;;;;;;;;;-0.39;72.42;98764.41;10271566;23;19924;-77
2022/12/12 15:41:10;;;;;;;;;;;;;;;-0.48;73.26;98767.56;10271202;23;19923;-77
2022/12/12 15:45:16;;;;;;;;;;;;;;;-0.58;74.57;98762.16;10264681;23;19924;-76
2022/12/12 15:49:35;;;;;;;;;;;;;;;-0.72;75.00;98761.72;10244786;23;19947;-76
2022/12/12 15:53:38;;;;;;;;;;;;;;;-0.86;75.54;98761.34;10223807;23;19955;-77
2022/12/12 15:57:44;;;;;;;;;;;;;;;-0.97;76.05;98770.31;10225450;23;20008;-76
2022/12/12 16:01:46;;;;;;;;;;;;;;;-1.04;77.03;98778.59;10246172;23;20430;-76
2022/12/12 16:06:06;;;;;;;;;;;;;;;-1.12;77.28;98785.13;10254118;23;20215;-76
2022/12/12 16:10:10;;;;;;;;;;;;;;;-1.20;77.63;98787.44;10226956;23;19928;-76
2022/12/12 16:14:24;;;;;;;;;;;;;;;-1.30;77.52;98786.25;10253226;23;20275;-76
2022/12/12 16:18:26;;;;;;;;;;;;;;;-1.39;78.32;98797.84;10246026;23;20345;-76
2022/12/12 16:22:33;;;;;;;;;;;;;;;-1.47;78.64;98804.34;10178723;23;19925;-76
2022/12/12 16:26:34;;;;;;;;;;;;;;;-1.54;79.34;98804.16;10182586;23;19925;-76
2022/12/12 16:30:37;;;;;;;;;;;;;;;-1.62;79.95;98803.00;10171586;23;19964;-76
2022/12/12 16:34:38;;;;;;;;;;;;;;;-1.71;79.96;98802.72;10180654;23;19960;-76
2022/12/12 16:38:41;;;;;;;;;;;;;;;-1.77;79.44;98794.00;10177492;23;19928;-76
2022/12/12 16:42:44;;;;;;;;;;;;;;;-1.80;79.73;98793.88;10179511;23;19952;-76
2022/12/12 16:46:46;;;;;;;;;;;;;;;-1.85;79.25;98788.63;10179030;23;19974;-76
2022/12/12 16:50:48;;;;;;;;;;;;;;;-1.90;80.45;98795.25;10177830;23;19929;-76
2022/12/12 16:54:50;;;;;;;;;;;;;;;-1.94;79.88;98785.78;10178724;23;19953;-76
2022/12/12 16:58:55;;;;;;;;;;;;;;;-1.99;79.69;98780.53;10153453;23;19953;-76
2022/12/12 17:02:56;;;;;;;;;;;;;;;-2.02;80.61;98790.59;10170221;23;19947;-76
2022/12/12 17:06:57;;;;;;;;;;;;;;;-2.05;80.68;98782.88;10179930;23;19940;-77
2022/12/12 17:10:59;;;;;;;;;;;;;;;-2.09;80.67;98788.66;10191020;23;19963;-77
2022/12/12 17:15:31;;;;;;;;;;;;;;;-2.15;81.09;98788.44;10223079;23;19959;-76
2022/12/12 17:19:33;;;;;;;;;;;;;;;-2.19;81.02;98787.44;10241962;23;19923;-77
2022/12/12 17:23:34;;;;;;;;;;;;;;;-2.24;80.87;98793.19;10227496;23;20011;-77
2022/12/12 17:27:36;;;;;;;;;;;;;;;-2.27;80.89;98793.94;10254394;23;19931;-77
2022/12/12 17:31:38;;;;;;;;;;;;;;;-2.25;81.11;98783.84;10244793;23;20262;-76
2022/12/12 17:35:42;;;;;;;;;;;;;;;-2.19;80.38;98782.38;10262603;23;20500;-77
2022/12/12 17:39:43;;;;;;;;;;;;;;;-2.12;80.59;98763.13;10283834;23;19954;-78
2022/12/12 17:43:44;;;;;;;;;;;;;;;-2.10;80.96;98778.44;10259555;23;19924;-76
2022/12/12 17:47:52;;;;;;;;;;;;;;;-2.10;80.69;98778.44;10248924;23;19920;-77
2022/12/12 17:51:53;;;;;;;;;;;;;;;-2.15;81.85;98784.22;10259898;23;20295;-77
2022/12/12 17:55:55;;;;;;;;;;;;;;;-2.20;81.85;98782.31;10256569;23;19924;-77
2022/12/12 18:00:08;;;;;;;;;;;;;;;-2.28;81.52;98787.13;10277177;23;19939;-76
2022/12/12 18:04:11;;;;;;;;;;;;;;;-2.32;81.85;98785.31;10250767;23;19924;-76
2022/12/12 18:08:17;;;;;;;;;;;;;;;-2.37;82.19;98783.38;10274135;23;19950;-76
2022/12/12 18:12:18;;;;;;;;;;;;;;;-2.41;81.61;98784.94;10252900;23;20007;-77
2022/12/12 18:16:22;;;;;;;;;;;;;;;-2.40;82.34;98785.81;10264762;23;19977;-76
2022/12/12 18:20:24;;;;;;;;;;;;;;;-2.37;82.69;98785.91;10251473;23;19924;-77
2022/12/12 18:24:34;;;;;;;;;;;;;;;-2.30;83.08;98777.72;10255307;23;19981;-77
2022/12/12 18:28:49;;;;;;;;;;;;;;;-2.25;83.08;98772.00;10230039;23;19933;-77
2022/12/12 18:33:09;;;;;;;;;;;;;;;-2.20;84.21;98774.69;10268574;23;20243;-77
2022/12/12 18:37:15;;;;;;;;;;;;;;;-2.17;83.82;98774.78;10279812;23;19924;-77
2022/12/12 18:41:20;;;;;;;;;;;;;;;-2.14;83.84;98775.78;10251569;23;20323;-76
2022/12/12 18:45:23;;;;;;;;;;;;;;;-2.14;83.91;98767.28;10271562;23;19923;-77
2022/12/12 18:49:30;;;;;;;;;;;;;;;-2.11;84.62;98775.03;10278007;23;20588;-77
2022/12/12 18:53:32;;;;;;;;;;;;;;;-2.10;84.64;98761.50;10250099;23;20002;-75
2022/12/12 18:57:33;;;;;;;;;;;;;;;-2.13;84.42;98766.47;10225614;23;19951;-76
2022/12/12 19:01:35;;;;;;;;;;;;;;;-2.14;84.65;98764.75;10242708;23;19924;-75
2022/12/12 19:05:40;;;;;;;;;;;;;;;-2.16;84.33;98756.19;10276091;23;20266;-76
2022/12/12 19:09:43;;;;;;;;;;;;;;;-2.18;85.08;98756.13;10249897;23;20011;-76
2022/12/12 19:13:46;;;;;;;;;;;;;;;-2.19;84.06;98749.31;10275700;23;19928;-76
2022/12/12 19:17:47;;;;;;;;;;;;;;;-2.21;85.30;98763.66;10273269;23;19934;-76
2022/12/12 19:21:51;;;;;;;;;;;;;;;-2.23;85.47;98755.09;10250634;23;19982;-77
2022/12/12 19:25:52;;;;;;;;;;;;;;;-2.23;85.09;98752.56;10277524;23;19959;-77
2022/12/12 19:29:54;;;;;;;;;;;;;;;-2.25;85.27;98758.41;10276933;23;19935;-77
2022/12/12 19:33:55;;;;;;;;;;;;;;;-2.25;84.56;98753.31;10271185;23;19920;-77
2022/12/12 19:37:57;;;;;;;;;;;;;;;-2.27;85.30;98754.94;10255551;23;20642;-77
2022/12/12 19:41:58;;;;;;;;;;;;;;;-2.35;84.24;98751.25;10254404;23;19924;-77
2022/12/12 19:46:07;;;;;;;;;;;;;;;-2.39;83.98;98752.81;10273379;23;19924;-77
2022/12/12 19:50:08;;;;;;;;;;;;;;;-2.40;84.43;98755.31;10279499;23;20227;-77
2022/12/12 19:54:14;;;;;;;;;;;;;;;-2.42;85.00;98756.94;10256922;23;19963;-77
2022/12/12 19:58:16;;;;;;;;;;;;;;;-2.42;84.87;98760.34;10255547;23;19985;-77
2022/12/12 20:02:17;;;;;;;;;;;;;;;-2.40;84.56;98765.47;10274679;23;20335;-77
2022/12/12 20:06:18;;;;;;;;;;;;;;;-2.41;83.97;98763.75;10255057;23;19928;-77
2022/12/12 20:10:20;;;;;;;;;;;;;;;-2.44;84.25;98761.97;10279113;23;19924;-76
2022/12/12 20:14:22;;;;;;;;;;;;;;;-2.47;84.29;98760.19;10254469;23;19924;-77
2022/12/12 20:18:24;;;;;;;;;;;;;;;-2.51;83.92;98757.47;10255729;23;19985;-77
2022/12/12 20:22:26;;;;;;;;;;;;;;;-2.50;85.14;98757.53;10264587;23;19920;-77
2022/12/12 20:26:29;;;;;;;;;;;;;;;-2.52;84.08;98751.50;10267711;23;19920;-77
2022/12/12 20:30:30;;;;;;;;;;;;;;;-2.55;84.04;98750.53;10266253;23;19966;-77
2022/12/12 20:34:32;;;;;;;;;;;;;;;-2.58;84.98;98741.13;10300751;23;19920;-77
2022/12/12 20:38:34;;;;;;;;;;;;;;;-2.60;84.31;98750.38;10298532;23;19924;-78
2022/12/12 20:42:35;;;;;;;;;;;;;;;-2.62;85.03;98743.50;10275801;23;19924;-77
2022/12/12 20:46:38;;;;;;;;;;;;;;;-2.62;85.25;98739.28;10272981;23;19956;-77
2022/12/12 20:50:40;;;;;;;;;;;;;;;-2.64;85.23;98740.91;10306368;23;20061;-77
2022/12/12 20:54:41;;;;;;;;;;;;;;;-2.65;84.83;98744.25;10250036;23;19931;-77
2022/12/12 20:58:43;;;;;;;;;;;;;;;-2.64;84.95;98747.66;10302461;23;20074;-77
2022/12/12 21:02:45;;;;;;;;;;;;;;;-2.67;85.27;98753.50;10308705;23;19947;-77
2022/12/12 21:06:48;;;;;;;;;;;;;;;-2.66;85.51;98749.28;10317998;23;20305;-77
2022/12/12 21:10:49;;;;;;;;;;;;;;;-2.72;85.27;98757.53;10300279;23;19920;-77
2022/12/12 21:14:50;;;;;;;;;;;;;;;-2.76;84.23;98756.56;10304180;23;19904;-78
2022/12/12 21:18:53;;;;;;;;;;;;;;;-2.77;84.74;98748.88;10306101;23;19927;-77
2022/12/12 21:22:55;;;;;;;;;;;;;;;-2.78;84.70;98742.06;10308466;23;19980;-78
2022/12/12 21:26:56;;;;;;;;;;;;;;;-2.80;85.22;98743.69;10334287;23;19947;-76
2022/12/12 21:30:58;;;;;;;;;;;;;;;-2.82;85.27;98742.75;10337139;23;19919;-76